createdAt,value
2022-08-03T00:01:37.962Z,101368.88
2022-08-03T00:04:08.655Z,101368.16
2022-08-03T00:06:37.258Z,101364.75
2022-08-03T00:09:05.809Z,101368.16
2022-08-03T00:11:33.567Z,101365.94
2022-08-03T00:14:01.367Z,101369.25
2022-08-03T00:16:28.887Z,101376.28
2022-08-03T00:18:56.212Z,101369.91
2022-08-03T00:21:23.689Z,101364.88
2022-08-03T00:23:52.877Z,101366.66
2022-08-03T00:26:21.222Z,101368.44
2022-08-03T00:28:49.427Z,101362.75
2022-08-03T00:31:16.904Z,101357.69
2022-08-03T00:34:03.484Z,101369.09
2022-08-03T00:36:31.580Z,101367.38
2022-08-03T00:38:58.903Z,101367.00
2022-08-03T00:41:26.343Z,101366.78
2022-08-03T00:43:53.715Z,101367.22
2022-08-03T00:46:22.481Z,101375.06
2022-08-03T00:48:51.120Z,101375.28
2022-08-03T00:51:20.104Z,101374.59
2022-08-03T00:53:47.734Z,101371.88
2022-08-03T00:56:16.484Z,101372.91
2022-08-03T00:58:45.122Z,101368.38
2022-08-03T01:01:13.186Z,101368.38
2022-08-03T01:03:41.260Z,101365.50
2022-08-03T01:06:18.899Z,101363.25
2022-08-03T01:09:20.050Z,101364.69
2022-08-03T01:12:01.812Z,101366.66
2022-08-03T01:14:47.121Z,101370.66
2022-08-03T01:17:23.213Z,101360.03
2022-08-03T01:20:02.212Z,101368.72
2022-08-03T01:22:57.791Z,101369.88
2022-08-03T01:25:36.942Z,101372.09
2022-08-03T01:28:28.931Z,101360.09
2022-08-03T01:31:01.505Z,101365.91
2022-08-03T01:33:37.210Z,101362.56
2022-08-03T01:36:09.770Z,101360.56
2022-08-03T01:38:43.164Z,101358.59
2022-08-03T01:41:22.807Z,101352.97
2022-08-03T01:44:26.756Z,101353.16
2022-08-03T01:46:40.646Z,101350.22
2022-08-03T01:49:17.237Z,101353.59
2022-08-03T01:51:57.712Z,101354.75
2022-08-03T01:54:37.784Z,101353.50
2022-08-03T01:57:06.640Z,101360.19
2022-08-03T01:59:36.583Z,101359.03
2022-08-03T02:02:31.987Z,101348.13
2022-08-03T02:04:55.725Z,101350.69
2022-08-03T02:07:24.919Z,101354.09
2022-08-03T02:09:54.353Z,101352.50
2022-08-03T02:12:25.062Z,101354.34
2022-08-03T02:14:54.124Z,101355.19
2022-08-03T02:17:39.194Z,101358.16
2022-08-03T02:20:09.933Z,101351.53
2022-08-03T02:22:40.306Z,101355.50
2022-08-03T02:25:09.583Z,101356.38
2022-08-03T02:27:43.748Z,101350.13
2022-08-03T02:30:13.271Z,101357.34
2022-08-03T02:32:44.051Z,101357.78
2022-08-03T02:35:13.510Z,101354.53
2022-08-03T02:37:54.595Z,101350.03
2022-08-03T02:40:24.192Z,101350.03
2022-08-03T02:42:54.844Z,101349.03
2022-08-03T02:45:25.173Z,101344.50
2022-08-03T02:47:56.956Z,101350.59
2022-08-03T02:50:26.312Z,101340.25
2022-08-03T02:52:55.210Z,101349.19
2022-08-03T02:55:23.982Z,101350.47
2022-08-03T02:57:52.687Z,101343.41
2022-08-03T03:00:27.861Z,101341.41
2022-08-03T03:03:00.775Z,101344.50
2022-08-03T03:05:52.795Z,101347.66
2022-08-03T03:08:26.226Z,101353.75
2022-08-03T03:10:58.240Z,101342.56
2022-08-03T03:13:28.243Z,101343.69
2022-08-03T03:15:57.734Z,101344.25
2022-08-03T03:18:27.469Z,101343.53
2022-08-03T03:20:56.318Z,101333.78
2022-08-03T03:23:25.377Z,101339.03
2022-08-03T03:25:53.363Z,101339.34
2022-08-03T03:28:20.850Z,101337.59
2022-08-03T03:30:52.638Z,101332.63
2022-08-03T03:33:22.094Z,101344.25
2022-08-03T03:35:51.598Z,101339.41
2022-08-03T03:38:19.820Z,101340.28
2022-08-03T03:40:47.603Z,101343.97
2022-08-03T03:43:14.927Z,101348.78
2022-08-03T03:45:43.210Z,101350.31
2022-08-03T03:48:10.904Z,101351.31
2022-08-03T03:50:41.016Z,101361.22
2022-08-03T03:53:12.597Z,101348.19
2022-08-03T03:56:01.661Z,101351.88
2022-08-03T03:58:29.524Z,101363.22
2022-08-03T04:00:56.941Z,101361.94
2022-08-03T04:03:24.344Z,101361.53
2022-08-03T04:06:10.564Z,101365.47
2022-08-03T04:08:56.343Z,101365.03
2022-08-03T04:11:43.443Z,101361.66
2022-08-03T04:14:24.662Z,101367.03
2022-08-03T04:16:57.289Z,101370.69
2022-08-03T04:19:34.212Z,101371.41
2022-08-03T04:22:10.600Z,101365.19
2022-08-03T04:24:45.332Z,101367.31
2022-08-03T04:27:15.344Z,101371.41
2022-08-03T04:29:48.505Z,101366.88
2022-08-03T04:32:17.046Z,101371.97
2022-08-03T04:34:44.561Z,101375.25
2022-08-03T04:37:14.982Z,101371.56
2022-08-03T04:39:43.005Z,101375.66
2022-08-03T04:42:12.704Z,101372.84
2022-08-03T04:44:42.537Z,101383.84
2022-08-03T04:49:38.359Z,101380.03
2022-08-03T04:52:08.509Z,101391.50
2022-08-03T04:54:50.955Z,101392.94
2022-08-03T04:57:23.017Z,101390.94
2022-08-03T05:00:01.340Z,101386.28
2022-08-03T05:02:31.075Z,101394.47
2022-08-03T05:04:58.760Z,101395.44
2022-08-03T05:07:25.996Z,101398.69
2022-08-03T05:10:01.853Z,101403.78
2022-08-03T05:12:33.486Z,101403.53
2022-08-03T05:15:01.841Z,101402.22
2022-08-03T05:17:29.140Z,101396.41
2022-08-03T05:19:57.074Z,101393.56
2022-08-03T05:22:24.340Z,101397.88
2022-08-03T05:24:51.592Z,101398.13
2022-08-03T05:27:19.528Z,101402.50
2022-08-03T05:29:48.068Z,101404.41
2022-08-03T05:32:16.251Z,101406.91
2022-08-03T05:34:44.024Z,101410.44
2022-08-03T05:37:11.306Z,101409.97
2022-08-03T05:39:38.555Z,101417.81
2022-08-03T05:42:05.853Z,101421.94
2022-08-03T05:44:33.074Z,101420.91
2022-08-03T05:47:00.358Z,101423.56
2022-08-03T05:49:27.701Z,101415.69
2022-08-03T05:51:59.820Z,101412.53
2022-08-03T05:54:56.268Z,101424.53
2022-08-03T05:57:23.521Z,101410.94
2022-08-03T05:59:55.724Z,101412.09
2022-08-03T06:02:27.939Z,101408.38
2022-08-03T06:04:55.343Z,101413.84
2022-08-03T06:07:22.715Z,101413.66
2022-08-03T06:10:34.410Z,101421.31
2022-08-03T06:12:37.292Z,101417.66
2022-08-03T06:15:05.270Z,101412.47
2022-08-03T06:17:37.457Z,101416.22
2022-08-03T06:20:06.225Z,101424.16
2022-08-03T06:22:33.615Z,101421.25
2022-08-03T06:25:04.850Z,101427.00
2022-08-03T06:27:37.292Z,101434.47
2022-08-03T06:30:05.486Z,101425.03
2022-08-03T06:32:33.693Z,101434.00
2022-08-03T06:35:01.089Z,101438.25
2022-08-03T06:37:29.224Z,101428.59
2022-08-03T06:39:56.525Z,101439.59
2022-08-03T06:42:23.731Z,101446.50
2022-08-03T06:44:52.509Z,101442.25
2022-08-03T06:47:19.709Z,101443.06
2022-08-03T06:50:12.284Z,101448.44
2022-08-03T06:52:37.772Z,101453.72
2022-08-03T06:55:06.930Z,101452.97
2022-08-03T06:57:34.150Z,101451.06
2022-08-03T07:00:10.411Z,101449.56
2022-08-03T07:02:40.526Z,101454.31
2022-08-03T07:05:09.739Z,101449.88
2022-08-03T07:07:37.398Z,101464.84
2022-08-03T07:10:06.160Z,101461.47
2022-08-03T07:12:34.524Z,101459.34
2022-08-03T07:15:03.572Z,101454.41
2022-08-03T07:17:33.645Z,101461.38
2022-08-03T07:20:01.986Z,101461.53
2022-08-03T07:22:29.413Z,101454.16
2022-08-03T07:24:57.046Z,101460.28
2022-08-03T07:27:26.824Z,101459.97
2022-08-03T07:29:55.224Z,101453.94
2022-08-03T07:32:22.834Z,101456.25
2022-08-03T07:34:50.206Z,101462.00
2022-08-03T07:37:17.532Z,101450.13
2022-08-03T07:39:44.949Z,101458.50
2022-08-03T07:42:12.220Z,101456.97
2022-08-03T07:44:39.945Z,101449.97
2022-08-03T07:47:07.264Z,101453.81
2022-08-03T07:49:41.174Z,101449.81
2022-08-03T07:52:28.255Z,101446.22
2022-08-03T07:54:55.878Z,101452.03
2022-08-03T07:57:23.318Z,101444.19
2022-08-03T08:00:01.748Z,101454.03
2022-08-03T08:02:39.953Z,101448.91
2022-08-03T08:05:07.774Z,101452.34
2022-08-03T08:07:34.979Z,101444.38
2022-08-03T08:10:02.206Z,101446.34
2022-08-03T08:12:29.817Z,101444.00
2022-08-03T08:14:57.431Z,101444.38
2022-08-03T08:17:24.788Z,101445.34
2022-08-03T08:19:53.362Z,101447.59
2022-08-03T08:22:30.038Z,101447.22
2022-08-03T08:25:48.913Z,101446.41
2022-08-03T08:31:44.736Z,101442.31
2022-08-03T08:34:12.096Z,101440.91
2022-08-03T08:36:39.340Z,101441.69
2022-08-03T08:39:06.566Z,101440.13
2022-08-03T08:41:34.833Z,101442.50
2022-08-03T08:44:04.439Z,101439.34
2022-08-03T08:46:33.303Z,101441.13
2022-08-03T08:49:03.810Z,101434.50
2022-08-03T08:51:59.156Z,101434.84
2022-08-03T08:54:25.960Z,101433.81
2022-08-03T08:56:56.100Z,101437.44
2022-08-03T08:59:24.928Z,101441.00
2022-08-03T09:01:57.248Z,101431.16
2022-08-03T09:04:25.209Z,101433.25
2022-08-03T09:07:17.662Z,101433.19
2022-08-03T09:10:11.745Z,101442.47
2022-08-03T09:12:42.920Z,101431.56
2022-08-03T09:15:28.136Z,101431.13
2022-08-03T09:17:57.820Z,101426.72
2022-08-03T09:20:26.816Z,101432.41
2022-08-03T09:23:19.161Z,101425.22
2022-08-03T09:25:59.793Z,101425.22
2022-08-03T09:29:00.140Z,101419.91
2022-08-03T09:31:38.097Z,101420.50
2022-08-03T09:34:08.021Z,101418.59
2022-08-03T09:36:43.435Z,101418.78
2022-08-03T09:39:19.671Z,101420.88
2022-08-03T09:42:07.895Z,101418.19
2022-08-03T09:44:38.088Z,101414.75
2022-08-03T09:47:06.603Z,101417.72
2022-08-03T09:49:34.301Z,101417.34
2022-08-03T09:52:33.284Z,101411.28
2022-08-03T09:55:01.427Z,101408.97
2022-08-03T09:57:30.779Z,101409.81
2022-08-03T10:00:12.584Z,101407.28
2022-08-03T10:02:41.883Z,101409.38
2022-08-03T10:05:17.611Z,101409.91
2022-08-03T10:07:50.565Z,101399.78
2022-08-03T10:10:30.803Z,101397.81
2022-08-03T10:13:00.254Z,101395.16
2022-08-03T10:16:21.711Z,101388.06
2022-08-03T10:18:15.113Z,101395.81
2022-08-03T10:20:53.543Z,101391.72
2022-08-03T10:23:22.792Z,101381.13
2022-08-03T10:25:55.003Z,101384.59
2022-08-03T10:28:22.489Z,101379.59
2022-08-03T10:30:51.534Z,101374.06
2022-08-03T10:33:49.906Z,101369.25
2022-08-03T10:36:14.332Z,101370.00
2022-08-03T10:38:47.795Z,101364.78
2022-08-03T10:41:19.949Z,101373.19
2022-08-03T10:44:17.738Z,101362.22
2022-08-03T10:46:47.263Z,101364.09
2022-08-03T10:49:33.950Z,101353.97
2022-08-03T10:52:02.787Z,101353.06
2022-08-03T10:55:01.011Z,101354.50
2022-08-03T10:57:52.587Z,101360.13
2022-08-03T11:00:28.061Z,101354.06
2022-08-03T11:03:09.336Z,101346.38
2022-08-03T11:05:44.958Z,101351.00
2022-08-03T11:08:19.532Z,101350.44
2022-08-03T11:10:48.053Z,101343.50
2022-08-03T11:13:17.094Z,101350.22
2022-08-03T11:15:46.701Z,101343.03
2022-08-03T11:18:15.353Z,101343.91
2022-08-03T11:20:50.007Z,101341.38
2022-08-03T11:23:20.548Z,101342.81
2022-08-03T11:26:23.221Z,101330.97
2022-08-03T11:28:50.524Z,101336.94
2022-08-03T11:31:47.993Z,101331.69
2022-08-03T11:34:13.099Z,101318.53
2022-08-03T11:37:18.113Z,101324.38
2022-08-03T11:39:47.539Z,101309.50
2022-08-03T11:42:27.129Z,101318.13
2022-08-03T11:44:58.799Z,101312.19
2022-08-03T11:47:30.029Z,101315.75
2022-08-03T11:50:00.258Z,101311.75
2022-08-03T11:52:34.404Z,101307.41
2022-08-03T11:55:02.251Z,101314.50
2022-08-03T11:59:16.469Z,101301.09
2022-08-03T12:00:30.431Z,101298.41
2022-08-03T12:03:06.953Z,101301.69
2022-08-03T12:05:39.883Z,101295.03
2022-08-03T12:08:09.396Z,101292.81
2022-08-03T12:10:38.163Z,101295.03
2022-08-03T12:13:56.730Z,101277.03
2022-08-03T12:15:59.059Z,101284.16
2022-08-03T12:18:26.449Z,101286.22
2022-08-03T12:21:04.860Z,101285.66
2022-08-03T12:23:34.859Z,101281.31
2022-08-03T12:26:10.211Z,101286.88
2022-08-03T12:28:38.563Z,101277.47
2022-08-03T12:31:07.895Z,101281.22
2022-08-03T12:34:03.258Z,101274.13
2022-08-03T12:36:32.803Z,101274.13
2022-08-03T12:39:06.060Z,101272.28
2022-08-03T12:41:36.517Z,101279.47
2022-08-03T12:44:05.926Z,101266.19
2022-08-03T12:46:38.303Z,101285.59
2022-08-03T12:49:18.653Z,101266.97
2022-08-03T12:51:46.027Z,101269.72
2022-08-03T12:54:18.501Z,101273.72
2022-08-03T12:57:01.042Z,101263.16
2022-08-03T12:59:49.853Z,101269.13
2022-08-03T13:02:24.167Z,101261.19
2022-08-03T13:04:53.968Z,101255.47
2022-08-03T13:07:22.939Z,101248.28
2022-08-03T13:09:54.417Z,101253.28
2022-08-03T13:12:23.344Z,101247.38
2022-08-03T13:14:55.301Z,101247.53
2022-08-03T13:17:22.777Z,101240.53
2022-08-03T13:19:50.563Z,101241.59
2022-08-03T13:22:20.069Z,101236.75
2022-08-03T13:24:50.020Z,101228.84
2022-08-03T13:28:02.062Z,101228.28
2022-08-03T13:30:05.137Z,101229.41
2022-08-03T13:32:33.339Z,101221.94
2022-08-03T13:35:02.928Z,101226.97
2022-08-03T13:37:32.304Z,101218.94
2022-08-03T13:40:04.492Z,101218.56
2022-08-03T13:42:33.674Z,101219.69
2022-08-03T13:45:01.755Z,101215.97
2022-08-03T13:47:29.175Z,101210.53
2022-08-03T13:50:01.845Z,101214.31
2022-08-03T13:52:36.594Z,101203.16
2022-08-03T13:55:06.417Z,101210.00
2022-08-03T13:58:02.971Z,101205.56
2022-08-03T14:00:28.498Z,101201.81
2022-08-03T14:03:06.458Z,101205.25
2022-08-03T14:05:35.829Z,101207.75
2022-08-03T14:08:05.662Z,101196.03
2022-08-03T14:10:38.415Z,101205.41
2022-08-03T14:13:06.373Z,101202.75
2022-08-03T14:15:37.205Z,101191.22
2022-08-03T14:18:06.727Z,101192.47
2022-08-03T14:20:46.968Z,101184.28
2022-08-03T14:23:17.899Z,101185.91
2022-08-03T14:25:51.505Z,101190.50
2022-08-03T14:28:23.083Z,101184.28
2022-08-03T14:30:54.626Z,101182.09
2022-08-03T14:33:22.408Z,101176.13
2022-08-03T14:35:50.363Z,101170.84
2022-08-03T14:38:18.339Z,101180.72
2022-08-03T14:40:45.799Z,101161.00
2022-08-03T14:43:13.249Z,101171.88
2022-08-03T14:45:40.845Z,101163.31
2022-08-03T14:50:33.508Z,101166.78
2022-08-03T14:50:56.662Z,101164.78
2022-08-03T14:53:24.201Z,101154.91
2022-08-03T14:55:52.945Z,101156.56
2022-08-03T14:58:22.068Z,101156.16
2022-08-03T15:00:51.682Z,101149.81
2022-08-03T15:03:23.044Z,101136.34
2022-08-03T15:05:55.415Z,101142.81
2022-08-03T15:08:24.679Z,101144.78
2022-08-03T15:10:53.096Z,101144.22
2022-08-03T15:13:20.919Z,101134.59
2022-08-03T15:15:49.794Z,101138.81
2022-08-03T15:18:17.152Z,101133.19
2022-08-03T15:20:46.278Z,101128.56
2022-08-03T15:23:15.628Z,101129.53
2022-08-03T15:26:06.570Z,101125.19
2022-08-03T15:28:32.569Z,101127.25
2022-08-03T15:31:00.403Z,101125.41
2022-08-03T15:33:28.409Z,101122.03
2022-08-03T15:35:56.568Z,101125.47
2022-08-03T15:38:25.981Z,101126.28
2022-08-03T15:40:55.048Z,101119.16
2022-08-03T15:43:23.148Z,101109.59
2022-08-03T15:46:12.833Z,101110.97
2022-08-03T15:48:39.350Z,101112.28
2022-08-03T15:51:07.498Z,101118.38
2022-08-03T15:53:35.022Z,101108.94
2022-08-03T15:56:09.431Z,101107.13
2022-08-03T15:59:03.758Z,101102.88
2022-08-03T16:01:26.816Z,101101.25
2022-08-03T16:03:54.120Z,101099.00
2022-08-03T16:06:35.343Z,101099.75
2022-08-03T16:09:22.949Z,101096.84
2022-08-03T16:11:53.967Z,101098.78
2022-08-03T16:14:34.235Z,101092.19
2022-08-03T16:17:05.322Z,101087.59
2022-08-03T16:19:32.571Z,101087.31
2022-08-03T16:22:00.847Z,101103.03
2022-08-03T16:24:28.441Z,101101.91
2022-08-03T16:26:56.642Z,101092.34
2022-08-03T16:29:24.214Z,101094.41
2022-08-03T16:31:52.791Z,101097.03
2022-08-03T16:34:21.157Z,101087.44
2022-08-03T16:36:48.598Z,101093.34
2022-08-03T16:39:15.921Z,101096.81
2022-08-03T16:41:54.078Z,101098.38
2022-08-03T16:44:30.466Z,101100.41
2022-08-03T16:46:58.821Z,101096.78
2022-08-03T16:49:55.030Z,101098.94
2022-08-03T16:52:13.790Z,101089.72
2022-08-03T16:54:44.418Z,101096.72
2022-08-03T16:57:55.787Z,101091.41
2022-08-03T17:00:09.660Z,101089.84
2022-08-03T17:02:37.875Z,101082.84
2022-08-03T17:05:05.581Z,101094.09
2022-08-03T17:07:32.897Z,101081.53
2022-08-03T17:10:01.556Z,101089.22
2022-08-03T17:12:29.086Z,101076.66
2022-08-03T17:14:57.449Z,101083.41
2022-08-03T17:17:47.646Z,101091.22
2022-08-03T17:20:19.643Z,101095.91
2022-08-03T17:22:54.125Z,101098.25
2022-08-03T17:26:01.437Z,101104.03
2022-08-03T17:28:48.299Z,101093.41
2022-08-03T17:31:23.495Z,101102.66
2022-08-03T17:34:01.638Z,101106.31
2022-08-03T17:39:30.882Z,101117.00
2022-08-03T17:42:05.305Z,101112.59
2022-08-03T17:44:53.686Z,101117.03
2022-08-03T17:47:21.679Z,101122.13
2022-08-03T17:49:49.443Z,101117.22
2022-08-03T17:52:24.509Z,101118.94
2022-08-03T17:55:55.978Z,101121.34
2022-08-03T17:58:13.717Z,101114.66
2022-08-03T18:01:04.328Z,101113.13
2022-08-03T18:03:59.762Z,101116.47
2022-08-03T18:06:31.423Z,101114.94
2022-08-03T18:09:04.783Z,101113.31
2022-08-03T18:11:37.029Z,101114.81
2022-08-03T18:14:19.824Z,101116.53
2022-08-03T18:16:57.894Z,101121.09
2022-08-03T18:20:02.766Z,101112.75
2022-08-03T18:22:20.845Z,101117.50
2022-08-03T18:24:52.329Z,101119.66
2022-08-03T18:27:21.286Z,101124.59
2022-08-03T18:29:50.573Z,101121.28
2022-08-03T18:32:18.880Z,101126.63
2022-08-03T18:34:53.369Z,101124.34
2022-08-03T18:37:25.332Z,101124.41
2022-08-03T18:39:58.007Z,101124.00
2022-08-03T18:42:26.822Z,101118.81
2022-08-03T18:44:57.516Z,101127.44
2022-08-03T18:48:05.003Z,101124.56
2022-08-03T18:50:49.498Z,101135.31
2022-08-03T18:54:02.992Z,101123.97
2022-08-03T18:56:31.654Z,101129.63
2022-08-03T18:59:14.052Z,101139.31
2022-08-03T19:01:57.706Z,101154.81
2022-08-03T19:04:33.396Z,101153.97
2022-08-03T19:07:06.976Z,101155.22
2022-08-03T19:09:38.020Z,101153.50
2022-08-03T19:12:28.145Z,101150.97
2022-08-03T19:15:13.037Z,101157.47
2022-08-03T19:17:52.958Z,101165.19
2022-08-03T19:20:23.136Z,101172.75
2022-08-03T19:22:56.001Z,101172.72
2022-08-03T19:25:34.311Z,101167.47
2022-08-03T19:28:06.276Z,101182.50
2022-08-03T19:30:39.108Z,101186.66
2022-08-03T19:33:09.253Z,101182.00
2022-08-03T19:35:54.904Z,101188.03
2022-08-03T19:38:28.465Z,101183.56
2022-08-03T19:41:00.847Z,101182.22
2022-08-03T19:43:53.513Z,101181.75
2022-08-03T19:46:30.119Z,101194.91
2022-08-03T19:49:15.422Z,101190.25
2022-08-03T19:54:56.771Z,101192.59
2022-08-03T19:57:27.128Z,101198.66
2022-08-03T19:59:56.448Z,101186.66
2022-08-03T20:02:27.229Z,101191.19
2022-08-03T20:04:57.151Z,101196.38
2022-08-03T20:07:25.930Z,101201.81
2022-08-03T20:09:56.643Z,101204.47
2022-08-03T20:12:29.019Z,101199.38
2022-08-03T20:14:58.114Z,101196.41
2022-08-03T20:20:18.543Z,101204.66
2022-08-03T20:22:48.109Z,101209.63
2022-08-03T20:25:20.671Z,101204.97
2022-08-03T20:28:07.919Z,101203.69
2022-08-03T20:30:44.446Z,101202.75
2022-08-03T20:33:18.229Z,101213.56
2022-08-03T20:35:48.944Z,101204.97
2022-08-03T20:38:18.715Z,101210.88
2022-08-03T20:40:47.556Z,101209.09
2022-08-03T20:43:16.614Z,101205.34
2022-08-03T20:46:00.051Z,101206.19
2022-08-03T20:48:36.113Z,101207.78
2022-08-03T20:51:19.778Z,101200.19
2022-08-03T20:53:57.065Z,101205.91
2022-08-03T20:56:32.007Z,101199.84
2022-08-03T20:59:06.003Z,101212.81
2022-08-03T21:01:36.244Z,101211.78
2022-08-03T21:04:06.999Z,101216.94
2022-08-03T21:06:53.234Z,101215.53
2022-08-03T21:09:33.373Z,101209.66
2022-08-03T21:12:05.029Z,101212.72
2022-08-03T21:13:03.793Z,101202.22
2022-08-03T21:13:09.285Z,101195.19
2022-08-03T21:15:03.733Z,101213.38
2022-08-03T21:17:41.477Z,101213.44
2022-08-03T21:20:10.789Z,101210.94
2022-08-03T21:22:41.311Z,101207.94
2022-08-03T21:25:09.588Z,101210.81
2022-08-03T21:27:37.295Z,101206.09
2022-08-03T21:30:08.130Z,101217.31
2022-08-03T21:32:36.350Z,101220.22
2022-08-03T21:35:03.880Z,101219.09
2022-08-03T21:37:31.086Z,101218.41
2022-08-03T21:39:58.422Z,101227.09
2022-08-03T21:42:25.764Z,101227.47
2022-08-03T21:44:53.499Z,101228.84
2022-08-03T21:47:22.525Z,101230.91
2022-08-03T21:50:08.900Z,101231.56
2022-08-03T21:52:42.691Z,101232.94
2022-08-03T21:55:18.370Z,101238.25
2022-08-03T21:57:52.852Z,101245.97
2022-08-03T22:00:23.116Z,101246.00
2022-08-03T22:02:57.237Z,101247.75
2022-08-03T22:05:43.016Z,101253.00
2022-08-03T22:08:13.624Z,101252.56
2022-08-03T22:10:43.656Z,101249.06
2022-08-03T22:13:13.279Z,101268.00
2022-08-03T22:15:40.924Z,101256.16
2022-08-03T22:18:08.173Z,101261.56
2022-08-03T22:20:35.625Z,101258.56
2022-08-03T22:23:06.324Z,101259.78
2022-08-03T22:25:36.526Z,101262.53
2022-08-03T22:28:12.022Z,101263.03
2022-08-03T22:30:40.940Z,101265.25
2022-08-03T22:33:11.182Z,101273.91
2022-08-03T22:35:47.814Z,101269.34
2022-08-03T22:38:17.254Z,101277.28
2022-08-03T22:40:46.991Z,101271.72
2022-08-03T22:43:14.320Z,101275.63
2022-08-03T22:46:09.192Z,101273.28
2022-08-03T22:48:35.913Z,101272.75
2022-08-03T22:51:09.394Z,101282.06
2022-08-03T22:53:37.076Z,101284.44
2022-08-03T22:56:04.605Z,101276.50
2022-08-03T22:58:31.827Z,101287.16
2022-08-03T23:01:07.763Z,101281.56
2022-08-03T23:03:59.712Z,101278.88
2022-08-03T23:06:31.953Z,101286.41
2022-08-03T23:08:59.441Z,101275.94
2022-08-03T23:11:28.496Z,101285.22
2022-08-03T23:13:58.778Z,101285.22
2022-08-03T23:16:28.817Z,101286.59
2022-08-03T23:18:59.536Z,101286.06
2022-08-03T23:21:53.859Z,101286.91
2022-08-03T23:24:29.850Z,101293.13
2022-08-03T23:26:58.890Z,101309.16
2022-08-03T23:29:29.174Z,101310.66
2022-08-03T23:31:57.505Z,101308.63
2022-08-03T23:34:44.510Z,101304.91
2022-08-03T23:37:15.135Z,101300.97
2022-08-03T23:39:47.133Z,101306.56
2022-08-03T23:42:19.184Z,101304.97
2022-08-03T23:44:47.246Z,101305.13
2022-08-03T23:47:14.623Z,101301.13
2022-08-03T23:49:41.941Z,101302.09
2022-08-03T23:52:19.093Z,101299.22
2022-08-03T23:55:13.076Z,101301.72
2022-08-03T23:57:56.027Z,101306.31
